Terminal Aerodrome Forecast
Issued by NWS Sterling, VA

Current Version | Previous Version | Text Only | Print | Product List | Glossary Off
Versions: 1 2 3 4 5 6 7 8 9 10 11 12 13 14 15 16

000
FTUS41 KLWX 161120
TAFMRB
TAF
KMRB 161120Z 1612/1712 23005KT P6SM SCT050
     FM161400 26014G20KT P6SM SCT050
     FM161600 27016G24KT P6SM BKN050
     FM170100 30010G17KT P6SM SCT040
     FM171100 30006KT P6SM FEW250=

USA.gov is the U.S. government's official web portal to all federal, state and local government web resources and services.